sensor_id;sensor_type;location;lat;lon;timestamp;temperature;humidity
22212;DHT22;11275;52.488;13.462;2023-08-01T00:00:48;20.40;99.90
22212;DHT22;11275;52.488;13.462;2023-08-01T00:03:14;20.40;99.90
22212;DHT22;11275;52.488;13.462;2023-08-01T00:05:40;20.30;99.90
22212;DHT22;11275;52.488;13.462;2023-08-01T00:08:12;20.30;99.90
22212;DHT22;11275;52.488;13.462;2023-08-01T00:10:39;20.30;99.90
22212;DHT22;11275;52.488;13.462;2023-08-01T00:13:05;20.20;99.90
22212;DHT22;11275;52.488;13.462;2023-08-01T00:15:31;20.20;99.90
22212;DHT22;11275;52.488;13.462;2023-08-01T00:17:56;20.20;99.90
22212;DHT22;11275;52.488;13.462;2023-08-01T00:20:22;20.20;99.90
22212;DHT22;11275;52.488;13.462;2023-08-01T00:22:48;20.20;99.90
22212;DHT22;11275;52.488;13.462;2023-08-01T00:25:13;20.10;99.90
22212;DHT22;11275;52.488;13.462;2023-08-01T00:27:39;20.10;99.90
22212;DHT22;11275;52.488;13.462;2023-08-01T00:30:05;20.10;99.90
22212;DHT22;11275;52.488;13.462;2023-08-01T00:32:31;20.10;99.90
22212;DHT22;11275;52.488;13.462;2023-08-01T00:45:06;19.90;99.90
22212;DHT22;11275;52.488;13.462;2023-08-01T00:47:32;19.80;99.90
22212;DHT22;11275;52.488;13.462;2023-08-01T00:49:58;19.80;99.90
22212;DHT22;11275;52.488;13.462;2023-08-01T00:52:23;19.70;99.90
22212;DHT22;11275;52.488;13.462;2023-08-01T00:54:49;19.70;99.90
22212;DHT22;11275;52.488;13.462;2023-08-01T00:57:14;19.70;99.90
22212;DHT22;11275;52.488;13.462;2023-08-01T00:59:40;19.70;99.90
22212;DHT22;11275;52.488;13.462;2023-08-01T01:02:06;19.70;99.90
22212;DHT22;11275;52.488;13.462;2023-08-01T01:04:32;19.70;99.90
22212;DHT22;11275;52.488;13.462;2023-08-01T01:07:01;19.60;99.90
22212;DHT22;11275;52.488;13.462;2023-08-01T01:09:31;19.70;99.90
22212;DHT22;11275;52.488;13.462;2023-08-01T01:11:58;19.60;99.90
22212;DHT22;11275;52.488;13.462;2023-08-01T01:14:25;19.70;99.90
22212;DHT22;11275;52.488;13.462;2023-08-01T01:16:51;19.60;99.90
22212;DHT22;11275;52.488;13.462;2023-08-01T01:19:17;19.70;99.90
22212;DHT22;11275;52.488;13.462;2023-08-01T01:21:43;19.60;99.90
22212;DHT22;11275;52.488;13.462;2023-08-01T01:24:10;19.60;99.90
22212;DHT22;11275;52.488;13.462;2023-08-01T01:26:37;19.60;99.90
22212;DHT22;11275;52.488;13.462;2023-08-01T01:29:04;19.60;99.90
22212;DHT22;11275;52.488;13.462;2023-08-01T01:31:31;19.60;99.90
22212;DHT22;11275;52.488;13.462;2023-08-01T01:33:58;19.60;99.90
22212;DHT22;11275;52.488;13.462;2023-08-01T01:36:24;19.60;99.90
22212;DHT22;11275;52.488;13.462;2023-08-01T01:38:49;19.60;99.90
22212;DHT22;11275;52.488;13.462;2023-08-01T01:41:15;19.60;99.90
22212;DHT22;11275;52.488;13.462;2023-08-01T01:43:40;19.60;99.90
22212;DHT22;11275;52.488;13.462;2023-08-01T01:46:06;19.60;99.90
22212;DHT22;11275;52.488;13.462;2023-08-01T01:48:32;19.60;99.90
22212;DHT22;11275;52.488;13.462;2023-08-01T01:50:58;19.60;99.90
22212;DHT22;11275;52.488;13.462;2023-08-01T01:53:24;19.60;99.90
22212;DHT22;11275;52.488;13.462;2023-08-01T01:55:50;19.60;99.90
22212;DHT22;11275;52.488;13.462;2023-08-01T01:58:15;19.50;99.90
22212;DHT22;11275;52.488;13.462;2023-08-01T02:00:41;19.50;99.90
22212;DHT22;11275;52.488;13.462;2023-08-01T02:03:07;19.50;99.90
22212;DHT22;11275;52.488;13.462;2023-08-01T02:05:36;19.60;99.90
22212;DHT22;11275;52.488;13.462;2023-08-01T02:08:01;19.50;99.90
22212;DHT22;11275;52.488;13.462;2023-08-01T02:10:27;19.50;99.90
22212;DHT22;11275;52.488;13.462;2023-08-01T02:12:52;19.50;99.90
22212;DHT22;11275;52.488;13.462;2023-08-01T02:15:18;19.50;99.90
22212;DHT22;11275;52.488;13.462;2023-08-01T02:17:44;19.40;99.90
22212;DHT22;11275;52.488;13.462;2023-08-01T02:20:10;19.40;99.90
22212;DHT22;11275;52.488;13.462;2023-08-01T02:22:35;19.40;99.90
22212;DHT22;11275;52.488;13.462;2023-08-01T02:25:01;19.40;99.90
22212;DHT22;11275;52.488;13.462;2023-08-01T02:27:26;19.40;99.90
22212;DHT22;11275;52.488;13.462;2023-08-01T02:29:52;19.40;99.90
22212;DHT22;11275;52.488;13.462;2023-08-01T02:32:18;19.40;99.90
22212;DHT22;11275;52.488;13.462;2023-08-01T02:34:43;19.40;99.90
22212;DHT22;11275;52.488;13.462;2023-08-01T02:37:09;19.40;99.90
22212;DHT22;11275;52.488;13.462;2023-08-01T02:39:35;19.40;99.90
22212;DHT22;11275;52.488;13.462;2023-08-01T02:42:01;19.40;99.90
22212;DHT22;11275;52.488;13.462;2023-08-01T02:44:27;19.40;99.90
22212;DHT22;11275;52.488;13.462;2023-08-01T02:46:52;19.40;99.90
22212;DHT22;11275;52.488;13.462;2023-08-01T02:49:18;19.40;99.90
22212;DHT22;11275;52.488;13.462;2023-08-01T02:51:43;19.40;99.90
22212;DHT22;11275;52.488;13.462;2023-08-01T02:54:09;19.40;99.90
22212;DHT22;11275;52.488;13.462;2023-08-01T02:56:35;19.40;99.90
22212;DHT22;11275;52.488;13.462;2023-08-01T02:59:03;19.30;99.90
22212;DHT22;11275;52.488;13.462;2023-08-01T03:01:30;19.20;99.90
22212;DHT22;11275;52.488;13.462;2023-08-01T03:03:56;19.20;99.90
22212;DHT22;11275;52.488;13.462;2023-08-01T03:06:22;19.20;99.90
22212;DHT22;11275;52.488;13.462;2023-08-01T03:08:47;19.20;99.90
22212;DHT22;11275;52.488;13.462;2023-08-01T03:11:13;19.20;99.90
22212;DHT22;11275;52.488;13.462;2023-08-01T03:13:38;19.30;99.90
22212;DHT22;11275;52.488;13.462;2023-08-01T03:16:04;19.30;99.90
22212;DHT22;11275;52.488;13.462;2023-08-01T03:18:30;19.30;99.90
22212;DHT22;11275;52.488;13.462;2023-08-01T03:20:55;19.30;99.90
22212;DHT22;11275;52.488;13.462;2023-08-01T03:23:21;19.20;99.90
22212;DHT22;11275;52.488;13.462;2023-08-01T03:25:47;19.20;99.90
22212;DHT22;11275;52.488;13.462;2023-08-01T03:28:13;19.30;99.90
22212;DHT22;11275;52.488;13.462;2023-08-01T03:30:39;19.30;99.90
22212;DHT22;11275;52.488;13.462;2023-08-01T03:33:05;19.20;99.90
22212;DHT22;11275;52.488;13.462;2023-08-01T03:35:30;19.20;99.90
22212;DHT22;11275;52.488;13.462;2023-08-01T03:37:56;19.20;99.90
22212;DHT22;11275;52.488;13.462;2023-08-01T03:40:21;19.20;99.90
22212;DHT22;11275;52.488;13.462;2023-08-01T03:42:47;19.20;99.90
22212;DHT22;11275;52.488;13.462;2023-08-01T03:45:13;19.10;99.90
22212;DHT22;11275;52.488;13.462;2023-08-01T03:47:38;19.10;99.90
22212;DHT22;11275;52.488;13.462;2023-08-01T03:50:04;19.10;99.90
22212;DHT22;11275;52.488;13.462;2023-08-01T03:52:30;19.10;99.90
22212;DHT22;11275;52.488;13.462;2023-08-01T03:54:56;19.10;99.90
22212;DHT22;11275;52.488;13.462;2023-08-01T03:57:22;19.10;99.90
22212;DHT22;11275;52.488;13.462;2023-08-01T03:59:47;19.10;99.90
22212;DHT22;11275;52.488;13.462;2023-08-01T04:02:13;19.10;99.90
22212;DHT22;11275;52.488;13.462;2023-08-01T04:04:38;19.10;99.90
22212;DHT22;11275;52.488;13.462;2023-08-01T04:07:04;19.20;99.90
22212;DHT22;11275;52.488;13.462;2023-08-01T04:09:30;19.30;99.90
22212;DHT22;11275;52.488;13.462;2023-08-01T04:11:55;19.30;99.90
22212;DHT22;11275;52.488;13.462;2023-08-01T04:14:21;19.30;99.90
22212;DHT22;11275;52.488;13.462;2023-08-01T04:16:47;19.30;99.90
22212;DHT22;11275;52.488;13.462;2023-08-01T04:19:12;19.30;99.90
22212;DHT22;11275;52.488;13.462;2023-08-01T04:21:38;19.30;99.90
22212;DHT22;11275;52.488;13.462;2023-08-01T04:24:04;19.30;99.90
22212;DHT22;11275;52.488;13.462;2023-08-01T04:26:30;19.30;99.90
22212;DHT22;11275;52.488;13.462;2023-08-01T04:28:55;19.40;99.90
22212;DHT22;11275;52.488;13.462;2023-08-01T04:31:21;19.40;99.90
22212;DHT22;11275;52.488;13.462;2023-08-01T04:33:46;19.40;99.90
22212;DHT22;11275;52.488;13.462;2023-08-01T04:36:12;19.50;99.90
22212;DHT22;11275;52.488;13.462;2023-08-01T04:38:38;19.50;99.90
22212;DHT22;11275;52.488;13.462;2023-08-01T04:41:03;19.50;99.90
22212;DHT22;11275;52.488;13.462;2023-08-01T04:43:29;19.60;99.90
22212;DHT22;11275;52.488;13.462;2023-08-01T04:45:55;19.60;99.90
22212;DHT22;11275;52.488;13.462;2023-08-01T04:48:20;19.60;99.90
22212;DHT22;11275;52.488;13.462;2023-08-01T04:50:46;19.60;99.90
22212;DHT22;11275;52.488;13.462;2023-08-01T04:53:12;19.60;99.90
22212;DHT22;11275;52.488;13.462;2023-08-01T04:55:38;19.60;99.90
22212;DHT22;11275;52.488;13.462;2023-08-01T04:58:03;19.60;99.90
22212;DHT22;11275;52.488;13.462;2023-08-01T05:00:29;19.60;99.90
22212;DHT22;11275;52.488;13.462;2023-08-01T05:02:55;19.60;99.90
22212;DHT22;11275;52.488;13.462;2023-08-01T05:05:21;19.60;99.90
22212;DHT22;11275;52.488;13.462;2023-08-01T05:07:46;19.60;99.90
22212;DHT22;11275;52.488;13.462;2023-08-01T05:10:12;19.50;99.90
22212;DHT22;11275;52.488;13.462;2023-08-01T05:12:38;19.50;99.90
22212;DHT22;11275;52.488;13.462;2023-08-01T05:15:03;19.50;99.90
22212;DHT22;11275;52.488;13.462;2023-08-01T05:17:29;19.60;99.90
22212;DHT22;11275;52.488;13.462;2023-08-01T05:19:55;19.60;99.90
22212;DHT22;11275;52.488;13.462;2023-08-01T05:22:21;19.60;99.90
22212;DHT22;11275;52.488;13.462;2023-08-01T05:24:46;19.60;99.90
22212;DHT22;11275;52.488;13.462;2023-08-01T05:27:12;19.60;99.90
22212;DHT22;11275;52.488;13.462;2023-08-01T05:29:37;19.60;99.90
22212;DHT22;11275;52.488;13.462;2023-08-01T05:32:03;19.60;99.90
22212;DHT22;11275;52.488;13.462;2023-08-01T05:34:29;19.70;99.90
22212;DHT22;11275;52.488;13.462;2023-08-01T05:36:55;19.70;99.90
22212;DHT22;11275;52.488;13.462;2023-08-01T05:39:20;19.70;99.90
22212;DHT22;11275;52.488;13.462;2023-08-01T05:41:46;19.70;99.90
22212;DHT22;11275;52.488;13.462;2023-08-01T05:44:12;19.80;99.90
22212;DHT22;11275;52.488;13.462;2023-08-01T05:46:37;19.70;99.90
22212;DHT22;11275;52.488;13.462;2023-08-01T05:49:03;19.80;99.90
22212;DHT22;11275;52.488;13.462;2023-08-01T05:51:28;19.80;99.90
22212;DHT22;11275;52.488;13.462;2023-08-01T05:53:54;19.80;99.90
22212;DHT22;11275;52.488;13.462;2023-08-01T05:56:20;19.80;99.90
22212;DHT22;11275;52.488;13.462;2023-08-01T05:58:45;19.90;99.90
22212;DHT22;11275;52.488;13.462;2023-08-01T06:01:11;19.90;99.90
22212;DHT22;11275;52.488;13.462;2023-08-01T06:03:37;19.80;99.90
22212;DHT22;11275;52.488;13.462;2023-08-01T06:06:03;19.90;99.90
22212;DHT22;11275;52.488;13.462;2023-08-01T06:08:29;19.80;99.90
22212;DHT22;11275;52.488;13.462;2023-08-01T06:10:55;19.90;99.90
22212;DHT22;11275;52.488;13.462;2023-08-01T06:13:21;19.90;99.90
22212;DHT22;11275;52.488;13.462;2023-08-01T06:15:46;19.90;99.90
22212;DHT22;11275;52.488;13.462;2023-08-01T06:18:12;19.90;99.90
22212;DHT22;11275;52.488;13.462;2023-08-01T06:20:38;19.90;99.90
22212;DHT22;11275;52.488;13.462;2023-08-01T06:23:04;19.90;99.90
22212;DHT22;11275;52.488;13.462;2023-08-01T06:25:29;19.90;99.90
22212;DHT22;11275;52.488;13.462;2023-08-01T06:27:55;20.00;99.90
22212;DHT22;11275;52.488;13.462;2023-08-01T06:30:20;20.10;99.90
22212;DHT22;11275;52.488;13.462;2023-08-01T06:32:46;20.10;99.90
22212;DHT22;11275;52.488;13.462;2023-08-01T06:35:11;20.10;99.90
22212;DHT22;11275;52.488;13.462;2023-08-01T06:37:37;20.10;99.90
22212;DHT22;11275;52.488;13.462;2023-08-01T06:40:03;20.10;99.90
22212;DHT22;11275;52.488;13.462;2023-08-01T06:42:29;20.10;99.90
22212;DHT22;11275;52.488;13.462;2023-08-01T06:44:55;20.10;99.90
22212;DHT22;11275;52.488;13.462;2023-08-01T06:47:21;20.10;99.90
22212;DHT22;11275;52.488;13.462;2023-08-01T06:49:46;20.10;99.90
22212;DHT22;11275;52.488;13.462;2023-08-01T06:52:12;20.10;99.90
22212;DHT22;11275;52.488;13.462;2023-08-01T06:54:38;20.10;99.90
22212;DHT22;11275;52.488;13.462;2023-08-01T06:57:03;20.20;99.90
22212;DHT22;11275;52.488;13.462;2023-08-01T06:59:29;20.20;99.90
22212;DHT22;11275;52.488;13.462;2023-08-01T07:01:55;20.20;99.90
22212;DHT22;11275;52.488;13.462;2023-08-01T07:04:21;20.30;99.90
22212;DHT22;11275;52.488;13.462;2023-08-01T07:06:46;20.20;99.90
22212;DHT22;11275;52.488;13.462;2023-08-01T07:09:12;20.20;99.90
22212;DHT22;11275;52.488;13.462;2023-08-01T07:11:38;20.20;99.90
22212;DHT22;11275;52.488;13.462;2023-08-01T07:14:03;20.20;99.90
22212;DHT22;11275;52.488;13.462;2023-08-01T07:16:29;20.20;99.90
22212;DHT22;11275;52.488;13.462;2023-08-01T07:18:55;20.20;99.90
22212;DHT22;11275;52.488;13.462;2023-08-01T07:21:20;20.30;99.90
22212;DHT22;11275;52.488;13.462;2023-08-01T07:23:46;20.40;99.90
22212;DHT22;11275;52.488;13.462;2023-08-01T07:26:13;20.40;99.90
22212;DHT22;11275;52.488;13.462;2023-08-01T07:28:39;20.50;99.90
22212;DHT22;11275;52.488;13.462;2023-08-01T07:31:06;20.60;99.90
22212;DHT22;11275;52.488;13.462;2023-08-01T07:33:35;20.70;99.90
22212;DHT22;11275;52.488;13.462;2023-08-01T07:36:01;20.80;99.90
22212;DHT22;11275;52.488;13.462;2023-08-01T07:38:27;20.80;99.90
22212;DHT22;11275;52.488;13.462;2023-08-01T07:40:53;20.80;99.90
22212;DHT22;11275;52.488;13.462;2023-08-01T07:43:19;20.80;99.90
22212;DHT22;11275;52.488;13.462;2023-08-01T07:45:45;20.90;99.90
22212;DHT22;11275;52.488;13.462;2023-08-01T07:48:11;20.90;99.90
22212;DHT22;11275;52.488;13.462;2023-08-01T07:50:36;20.90;99.90
22212;DHT22;11275;52.488;13.462;2023-08-01T07:53:02;20.90;99.90
22212;DHT22;11275;52.488;13.462;2023-08-01T07:55:28;21.10;99.90
22212;DHT22;11275;52.488;13.462;2023-08-01T07:57:53;21.10;99.90
22212;DHT22;11275;52.488;13.462;2023-08-01T08:00:19;21.20;99.90
22212;DHT22;11275;52.488;13.462;2023-08-01T08:02:45;21.30;99.90
22212;DHT22;11275;52.488;13.462;2023-08-01T08:05:11;21.40;99.90
22212;DHT22;11275;52.488;13.462;2023-08-01T08:07:37;21.50;99.90
22212;DHT22;11275;52.488;13.462;2023-08-01T08:10:06;21.50;99.90
22212;DHT22;11275;52.488;13.462;2023-08-01T08:12:32;21.50;99.90
22212;DHT22;11275;52.488;13.462;2023-08-01T08:14:58;21.50;99.90
22212;DHT22;11275;52.488;13.462;2023-08-01T08:17:23;21.50;99.90
22212;DHT22;11275;52.488;13.462;2023-08-01T08:19:49;21.60;99.90
22212;DHT22;11275;52.488;13.462;2023-08-01T08:22:15;21.70;99.90
22212;DHT22;11275;52.488;13.462;2023-08-01T08:24:40;21.80;99.90
22212;DHT22;11275;52.488;13.462;2023-08-01T08:27:06;21.90;99.90
22212;DHT22;11275;52.488;13.462;2023-08-01T08:29:32;22.00;99.90
22212;DHT22;11275;52.488;13.462;2023-08-01T08:31:58;22.00;99.90
22212;DHT22;11275;52.488;13.462;2023-08-01T08:34:24;22.20;99.90
22212;DHT22;11275;52.488;13.462;2023-08-01T08:36:50;22.30;99.90
22212;DHT22;11275;52.488;13.462;2023-08-01T08:39:16;22.30;99.90
22212;DHT22;11275;52.488;13.462;2023-08-01T08:41:50;22.40;99.90
22212;DHT22;11275;52.488;13.462;2023-08-01T08:44:18;22.50;99.90
22212;DHT22;11275;52.488;13.462;2023-08-01T08:46:53;22.50;99.90
22212;DHT22;11275;52.488;13.462;2023-08-01T08:49:21;22.50;99.90
22212;DHT22;11275;52.488;13.462;2023-08-01T08:51:48;22.50;99.90
22212;DHT22;11275;52.488;13.462;2023-08-01T08:54:15;22.50;99.90
22212;DHT22;11275;52.488;13.462;2023-08-01T08:56:41;22.50;99.90
22212;DHT22;11275;52.488;13.462;2023-08-01T08:59:08;22.30;99.90
22212;DHT22;11275;52.488;13.462;2023-08-01T09:01:36;22.30;99.90
22212;DHT22;11275;52.488;13.462;2023-08-01T09:04:01;22.40;99.90
22212;DHT22;11275;52.488;13.462;2023-08-01T09:06:49;22.50;99.90
22212;DHT22;11275;52.488;13.462;2023-08-01T09:09:15;22.70;99.90
22212;DHT22;11275;52.488;13.462;2023-08-01T09:11:42;22.70;99.90
22212;DHT22;11275;52.488;13.462;2023-08-01T09:14:09;22.80;99.90
22212;DHT22;11275;52.488;13.462;2023-08-01T09:16:35;22.70;99.90
22212;DHT22;11275;52.488;13.462;2023-08-01T09:19:00;22.80;99.90
22212;DHT22;11275;52.488;13.462;2023-08-01T09:21:26;22.90;99.90
22212;DHT22;11275;52.488;13.462;2023-08-01T09:23:52;22.90;99.90
22212;DHT22;11275;52.488;13.462;2023-08-01T09:26:19;23.00;99.90
22212;DHT22;11275;52.488;13.462;2023-08-01T09:28:58;23.20;99.90
22212;DHT22;11275;52.488;13.462;2023-08-01T09:31:34;23.40;99.90
22212;DHT22;11275;52.488;13.462;2023-08-01T09:34:01;23.50;99.90
22212;DHT22;11275;52.488;13.462;2023-08-01T09:36:27;23.40;99.90
22212;DHT22;11275;52.488;13.462;2023-08-01T09:39:01;23.40;99.90
22212;DHT22;11275;52.488;13.462;2023-08-01T09:41:31;23.40;99.90
22212;DHT22;11275;52.488;13.462;2023-08-01T09:43:57;23.20;99.90
22212;DHT22;11275;52.488;13.462;2023-08-01T09:46:24;23.00;99.90
22212;DHT22;11275;52.488;13.462;2023-08-01T09:48:50;22.80;99.90
22212;DHT22;11275;52.488;13.462;2023-08-01T09:51:17;22.60;99.90
22212;DHT22;11275;52.488;13.462;2023-08-01T09:53:56;22.40;99.90
22212;DHT22;11275;52.488;13.462;2023-08-01T09:56:23;22.50;99.90
22212;DHT22;11275;52.488;13.462;2023-08-01T09:58:50;22.60;99.90
22212;DHT22;11275;52.488;13.462;2023-08-01T10:01:18;22.80;99.90
22212;DHT22;11275;52.488;13.462;2023-08-01T10:03:46;23.00;99.90
22212;DHT22;11275;52.488;13.462;2023-08-01T10:06:23;23.10;99.90
22212;DHT22;11275;52.488;13.462;2023-08-01T10:08:51;23.10;99.90
22212;DHT22;11275;52.488;13.462;2023-08-01T10:11:19;23.00;99.90
22212;DHT22;11275;52.488;13.462;2023-08-01T10:13:45;23.10;99.90
22212;DHT22;11275;52.488;13.462;2023-08-01T10:16:12;23.10;99.90
22212;DHT22;11275;52.488;13.462;2023-08-01T10:18:39;23.10;99.90
22212;DHT22;11275;52.488;13.462;2023-08-01T10:21:06;23.00;99.90
22212;DHT22;11275;52.488;13.462;2023-08-01T10:23:33;22.90;99.90
22212;DHT22;11275;52.488;13.462;2023-08-01T10:26:00;22.80;99.90
22212;DHT22;11275;52.488;13.462;2023-08-01T10:28:37;22.60;99.90
22212;DHT22;11275;52.488;13.462;2023-08-01T10:31:21;22.50;99.90
22212;DHT22;11275;52.488;13.462;2023-08-01T10:33:48;22.60;99.90
22212;DHT22;11275;52.488;13.462;2023-08-01T10:36:19;22.70;99.90
22212;DHT22;11275;52.488;13.462;2023-08-01T10:38:50;22.70;99.90
22212;DHT22;11275;52.488;13.462;2023-08-01T10:43:51;22.80;99.90
22212;DHT22;11275;52.488;13.462;2023-08-01T10:46:17;22.70;99.90
22212;DHT22;11275;52.488;13.462;2023-08-01T10:48:50;22.60;99.90
22212;DHT22;11275;52.488;13.462;2023-08-01T10:51:17;22.50;99.90
22212;DHT22;11275;52.488;13.462;2023-08-01T10:53:42;22.40;99.90
22212;DHT22;11275;52.488;13.462;2023-08-01T10:56:14;22.30;99.90
22212;DHT22;11275;52.488;13.462;2023-08-01T10:58:40;22.10;99.90
22212;DHT22;11275;52.488;13.462;2023-08-01T11:01:06;21.90;99.90
22212;DHT22;11275;52.488;13.462;2023-08-01T11:03:38;21.70;99.90
22212;DHT22;11275;52.488;13.462;2023-08-01T11:06:04;21.60;99.90
22212;DHT22;11275;52.488;13.462;2023-08-01T11:08:37;21.60;99.90
22212;DHT22;11275;52.488;13.462;2023-08-01T11:11:05;21.60;99.90
22212;DHT22;11275;52.488;13.462;2023-08-01T11:13:31;21.50;99.90
22212;DHT22;11275;52.488;13.462;2023-08-01T11:16:01;21.50;99.90
22212;DHT22;11275;52.488;13.462;2023-08-01T11:18:26;21.50;99.90
22212;DHT22;11275;52.488;13.462;2023-08-01T11:20:52;21.40;99.90
22212;DHT22;11275;52.488;13.462;2023-08-01T11:23:18;21.40;99.90
22212;DHT22;11275;52.488;13.462;2023-08-01T11:25:44;21.20;99.90
22212;DHT22;11275;52.488;13.462;2023-08-01T11:28:15;21.20;99.90
22212;DHT22;11275;52.488;13.462;2023-08-01T11:30:41;21.30;99.90
22212;DHT22;11275;52.488;13.462;2023-08-01T11:33:14;21.40;99.90
22212;DHT22;11275;52.488;13.462;2023-08-01T11:35:40;21.50;99.90
22212;DHT22;11275;52.488;13.462;2023-08-01T11:38:06;21.60;99.90
22212;DHT22;11275;52.488;13.462;2023-08-01T11:40:32;21.70;99.90
22212;DHT22;11275;52.488;13.462;2023-08-01T11:42:58;21.80;99.90
22212;DHT22;11275;52.488;13.462;2023-08-01T11:45:24;21.70;99.90
22212;DHT22;11275;52.488;13.462;2023-08-01T11:47:51;21.70;99.90
22212;DHT22;11275;52.488;13.462;2023-08-01T11:50:24;21.90;99.90
22212;DHT22;11275;52.488;13.462;2023-08-01T11:52:50;21.90;99.90
22212;DHT22;11275;52.488;13.462;2023-08-01T11:55:35;21.90;99.90
22212;DHT22;11275;52.488;13.462;2023-08-01T11:58:01;21.90;99.90
22212;DHT22;11275;52.488;13.462;2023-08-01T12:00:28;21.90;99.90
22212;DHT22;11275;52.488;13.462;2023-08-01T12:03:08;21.90;99.90
22212;DHT22;11275;52.488;13.462;2023-08-01T12:05:40;21.90;99.90
22212;DHT22;11275;52.488;13.462;2023-08-01T12:08:14;21.90;99.90
22212;DHT22;11275;52.488;13.462;2023-08-01T12:10:42;22.00;99.90
22212;DHT22;11275;52.488;13.462;2023-08-01T12:13:25;22.00;99.90
22212;DHT22;11275;52.488;13.462;2023-08-01T12:15:53;22.10;99.90
22212;DHT22;11275;52.488;13.462;2023-08-01T12:18:22;22.20;99.90
22212;DHT22;11275;52.488;13.462;2023-08-01T12:20:48;22.30;99.90
22212;DHT22;11275;52.488;13.462;2023-08-01T12:23:13;22.20;99.90
22212;DHT22;11275;52.488;13.462;2023-08-01T12:25:39;22.20;99.90
22212;DHT22;11275;52.488;13.462;2023-08-01T12:28:05;22.20;99.90
22212;DHT22;11275;52.488;13.462;2023-08-01T12:30:30;22.20;99.90
22212;DHT22;11275;52.488;13.462;2023-08-01T12:32:56;22.40;99.90
22212;DHT22;11275;52.488;13.462;2023-08-01T12:35:21;22.40;99.90
22212;DHT22;11275;52.488;13.462;2023-08-01T12:37:47;22.40;99.90
22212;DHT22;11275;52.488;13.462;2023-08-01T12:40:13;22.50;99.90
22212;DHT22;11275;52.488;13.462;2023-08-01T12:42:38;22.50;99.90
22212;DHT22;11275;52.488;13.462;2023-08-01T12:45:04;22.50;99.90
22212;DHT22;11275;52.488;13.462;2023-08-01T12:47:30;22.60;99.90
22212;DHT22;11275;52.488;13.462;2023-08-01T12:49:56;22.60;99.90
22212;DHT22;11275;52.488;13.462;2023-08-01T12:52:23;22.50;99.90
22212;DHT22;11275;52.488;13.462;2023-08-01T12:54:52;22.50;99.90
22212;DHT22;11275;52.488;13.462;2023-08-01T12:57:17;22.60;99.90
22212;DHT22;11275;52.488;13.462;2023-08-01T12:59:44;22.70;99.90
22212;DHT22;11275;52.488;13.462;2023-08-01T13:02:09;22.80;99.90
22212;DHT22;11275;52.488;13.462;2023-08-01T13:04:35;22.70;99.90
22212;DHT22;11275;52.488;13.462;2023-08-01T13:07:00;22.70;99.90
22212;DHT22;11275;52.488;13.462;2023-08-01T13:09:26;22.70;99.90
22212;DHT22;11275;52.488;13.462;2023-08-01T13:11:52;22.80;99.90
22212;DHT22;11275;52.488;13.462;2023-08-01T13:14:18;22.70;99.90
22212;DHT22;11275;52.488;13.462;2023-08-01T13:16:44;22.70;99.90
22212;DHT22;11275;52.488;13.462;2023-08-01T13:19:09;22.60;99.90
22212;DHT22;11275;52.488;13.462;2023-08-01T13:21:35;22.70;99.90
22212;DHT22;11275;52.488;13.462;2023-08-01T13:24:01;22.90;99.90
22212;DHT22;11275;52.488;13.462;2023-08-01T13:26:32;23.00;99.90
22212;DHT22;11275;52.488;13.462;2023-08-01T13:28:58;23.00;99.90
22212;DHT22;11275;52.488;13.462;2023-08-01T13:31:25;23.00;99.90
22212;DHT22;11275;52.488;13.462;2023-08-01T13:33:50;23.10;99.90
22212;DHT22;11275;52.488;13.462;2023-08-01T13:36:18;23.20;99.90
22212;DHT22;11275;52.488;13.462;2023-08-01T13:38:44;23.20;99.90
22212;DHT22;11275;52.488;13.462;2023-08-01T13:41:10;23.10;99.90
22212;DHT22;11275;52.488;13.462;2023-08-01T13:43:35;23.10;99.90
22212;DHT22;11275;52.488;13.462;2023-08-01T13:46:14;23.10;99.90
22212;DHT22;11275;52.488;13.462;2023-08-01T13:48:41;23.20;99.90
22212;DHT22;11275;52.488;13.462;2023-08-01T13:51:07;23.20;99.90
22212;DHT22;11275;52.488;13.462;2023-08-01T13:53:33;23.30;99.90
22212;DHT22;11275;52.488;13.462;2023-08-01T13:55:59;23.40;99.90
22212;DHT22;11275;52.488;13.462;2023-08-01T13:58:25;23.50;99.90
22212;DHT22;11275;52.488;13.462;2023-08-01T14:00:50;23.50;99.90
22212;DHT22;11275;52.488;13.462;2023-08-01T14:03:16;23.30;99.90
22212;DHT22;11275;52.488;13.462;2023-08-01T14:05:41;23.10;99.90
22212;DHT22;11275;52.488;13.462;2023-08-01T14:08:07;23.20;99.90
22212;DHT22;11275;52.488;13.462;2023-08-01T14:10:33;23.20;99.90
22212;DHT22;11275;52.488;13.462;2023-08-01T14:12:59;23.30;99.90
22212;DHT22;11275;52.488;13.462;2023-08-01T14:15:24;23.30;99.90
22212;DHT22;11275;52.488;13.462;2023-08-01T14:17:50;23.60;99.90
22212;DHT22;11275;52.488;13.462;2023-08-01T14:20:15;23.80;99.90
22212;DHT22;11275;52.488;13.462;2023-08-01T14:22:42;23.80;99.90
22212;DHT22;11275;52.488;13.462;2023-08-01T14:25:08;23.90;99.90
22212;DHT22;11275;52.488;13.462;2023-08-01T14:27:34;23.90;99.90
22212;DHT22;11275;52.488;13.462;2023-08-01T14:30:01;23.80;99.90
22212;DHT22;11275;52.488;13.462;2023-08-01T14:32:27;23.90;99.90
22212;DHT22;11275;52.488;13.462;2023-08-01T14:34:53;23.90;99.90
22212;DHT22;11275;52.488;13.462;2023-08-01T14:37:18;23.90;99.90
22212;DHT22;11275;52.488;13.462;2023-08-01T14:39:44;23.90;99.90
22212;DHT22;11275;52.488;13.462;2023-08-01T14:42:10;23.90;99.90
22212;DHT22;11275;52.488;13.462;2023-08-01T14:44:35;24.10;99.90
22212;DHT22;11275;52.488;13.462;2023-08-01T14:47:01;24.30;99.90
22212;DHT22;11275;52.488;13.462;2023-08-01T14:49:27;24.40;99.90
22212;DHT22;11275;52.488;13.462;2023-08-01T14:51:55;24.50;99.90
22212;DHT22;11275;52.488;13.462;2023-08-01T14:54:21;24.50;99.90
22212;DHT22;11275;52.488;13.462;2023-08-01T14:56:46;24.60;99.90
22212;DHT22;11275;52.488;13.462;2023-08-01T14:59:12;24.70;99.90
22212;DHT22;11275;52.488;13.462;2023-08-01T15:01:37;24.80;99.90
22212;DHT22;11275;52.488;13.462;2023-08-01T15:04:03;24.70;99.90
22212;DHT22;11275;52.488;13.462;2023-08-01T15:06:29;24.40;99.90
22212;DHT22;11275;52.488;13.462;2023-08-01T15:08:55;24.10;99.90
22212;DHT22;11275;52.488;13.462;2023-08-01T15:11:20;24.00;99.90
22212;DHT22;11275;52.488;13.462;2023-08-01T15:13:46;23.90;99.90
22212;DHT22;11275;52.488;13.462;2023-08-01T15:16:12;23.80;99.90
22212;DHT22;11275;52.488;13.462;2023-08-01T15:18:38;23.60;99.90
22212;DHT22;11275;52.488;13.462;2023-08-01T15:21:03;23.50;99.90
22212;DHT22;11275;52.488;13.462;2023-08-01T15:23:29;23.40;99.90